Hauptseite
METAR-TAF:

METAR-TAF

Flughäfen :

Polokwane International Airport

Polokwane, Südafrika

Breite: 23-50-43S, Länge: 29-27-31E, Höhe: 1242 m

Beobachtung

Neuester Wetterbericht von vor 42 Minuten, um 21:00 UTC
Windstille
Temperatur 15°C
Luftfeuchtigkeit 88%
Luftdruck 1024 hPa

METAR: FAPP 242100Z AUTO 00000KT //// // ////// 15/13 Q1024

Zeit: 23:42 (21:42 UTC)

Prognose

Neuester Wetterbericht von vor 12 Stunden und 42 Minuten, um 09:00 UTC
Gültige Prognose vom 24 um 10 UTC bis 24 um 18 UTC
Wind 8 kt aus Ost
Sichtweite 10 km oder mehr
Durchbrochene Bewölkung in der Höhe von 1500 ft
Übergehend zu
vom 24 um 11 UTC bis 24 um 13 UTC
Wind 7 kt aus Nord/Nordost
Aufgelockert bewölkt in der Höhe von 3000 ft

TAF: FAPP 240900Z 2410/2418 09008KT 9999 BKN015 TX24/2413Z TN18/2418Z BECMG 2411/2413 03007KT SCT030

Wetterbeobachtungen und Prognosen von mehr als 4000 Flughäfen (METAR und TAF Bericht).

Die verfügbaren Stationen werden durch gelbe und rote Markierungen auf der Karte dargestellt.

Führen Sie die Maus auf sie, um den Namen der Station zu sehen.

Darauf klicken, um die Beobachtung von Wetterbeobachtungen und Prognosen zu sehen.

Um die Karte zu ändern : klicken Sie auf den grünen Tasten mit einem schwarzen Kreuz Zum Vergrößern, auf den grünen Button mit einem Gedankenstrich zu verkleinern, oder auf die grünen Pfeile für benachbarte Karten.


METAR-TAF: